sensor_id;sensor_type;location;lat;lon;timestamp;pressure;altitude;pressure_sealevel;temperature;humidity
7888;BME280;3989;48.810;9.208;2023-02-11T08:16:16;100725.09;;;1.98;100.00
7888;BME280;3989;48.810;9.208;2023-02-11T08:18:44;100721.38;;;2.02;100.00
7888;BME280;3989;48.810;9.208;2023-02-11T08:21:12;100717.28;;;1.97;100.00
7888;BME280;3989;48.810;9.208;2023-02-11T08:23:40;100732.53;;;2.07;100.00
7888;BME280;3989;48.810;9.208;2023-02-11T11:01:37;100472.25;;;4.87;83.67
7888;BME280;3989;48.810;9.208;2023-02-11T11:09:26;100524.56;;;5.48;80.35
7888;BME280;3989;48.810;9.208;2023-02-11T11:12:03;100595.19;;;6.12;79.88
7888;BME280;3989;48.810;9.208;2023-02-11T11:14:34;100656.75;;;6.66;78.04
7888;BME280;3989;48.810;9.208;2023-02-11T11:23:14;100538.09;;;6.32;75.60
7888;BME280;3989;48.810;9.208;2023-02-11T11:26:00;100631.41;;;6.99;75.61
7888;BME280;3989;48.810;9.208;2023-02-11T11:28:31;100673.09;;;7.22;74.46
7888;BME280;3989;48.810;9.208;2023-02-11T11:31:11;100567.00;;;6.60;71.45
7888;BME280;3989;48.810;9.208;2023-02-11T11:37:28;100409.97;;;5.82;72.57
7888;BME280;3989;48.810;9.208;2023-02-11T11:40:21;100600.53;;;6.98;73.06
7888;BME280;3989;48.810;9.208;2023-02-11T11:43:20;100496.94;;;6.63;73.07
7888;BME280;3989;48.810;9.208;2023-02-11T11:45:58;100664.66;;;7.75;71.62
7888;BME280;3989;48.810;9.208;2023-02-11T11:48:46;100422.72;;;6.74;69.97
7888;BME280;3989;48.810;9.208;2023-02-11T11:51:15;100494.13;;;7.47;66.17
7888;BME280;3989;48.810;9.208;2023-02-11T11:53:47;100601.34;;;8.37;63.98
7888;BME280;3989;48.810;9.208;2023-02-11T11:56:19;100558.16;;;8.23;62.59
7888;BME280;3989;48.810;9.208;2023-02-11T11:58:46;100606.50;;;8.94;61.21
7888;BME280;3989;48.810;9.208;2023-02-11T12:01:21;100627.56;;;9.40;60.38
7888;BME280;3989;48.810;9.208;2023-02-11T12:04:16;100637.69;;;9.58;58.34
7888;BME280;3989;48.810;9.208;2023-02-11T12:06:59;100621.09;;;9.11;58.16
7888;BME280;3989;48.810;9.208;2023-02-11T12:09:35;100636.56;;;9.28;60.61
7888;BME280;3989;48.810;9.208;2023-02-11T12:12:20;100636.06;;;9.34;62.48
7888;BME280;3989;48.810;9.208;2023-02-11T12:14:57;100525.69;;;8.84;63.68
7888;BME280;3989;48.810;9.208;2023-02-11T12:17:45;100587.75;;;9.28;63.11
7888;BME280;3989;48.810;9.208;2023-02-11T12:20:31;100507.41;;;9.12;62.71
7888;BME280;3989;48.810;9.208;2023-02-11T12:23:13;100503.22;;;9.30;61.14
7888;BME280;3989;48.810;9.208;2023-02-11T12:25:51;100639.78;;;10.27;60.60
7888;BME280;3989;48.810;9.208;2023-02-11T12:28:28;100592.56;;;9.86;59.47
7888;BME280;3989;48.810;9.208;2023-02-11T12:31:11;100639.28;;;10.01;60.17
7888;BME280;3989;48.810;9.208;2023-02-11T12:33:55;100634.91;;;9.80;59.50
7888;BME280;3989;48.810;9.208;2023-02-11T12:36:40;100639.47;;;9.68;60.58
7888;BME280;3989;48.810;9.208;2023-02-11T12:39:16;100590.13;;;9.42;60.89
7888;BME280;3989;48.810;9.208;2023-02-11T12:42:02;100626.84;;;9.91;59.92
7888;BME280;3989;48.810;9.208;2023-02-11T12:44:58;100625.75;;;9.93;58.66
7888;BME280;3989;48.810;9.208;2023-02-11T12:47:36;100639.72;;;10.07;59.70
7888;BME280;3989;48.810;9.208;2023-02-11T12:50:12;100582.28;;;9.61;58.29
7888;BME280;3989;48.810;9.208;2023-02-11T12:52:53;100613.84;;;9.77;58.73
7888;BME280;3989;48.810;9.208;2023-02-11T12:55:26;100555.19;;;9.24;62.69
7888;BME280;3989;48.810;9.208;2023-02-11T12:57:55;100626.84;;;9.38;66.01
7888;BME280;3989;48.810;9.208;2023-02-11T13:00:25;100594.38;;;9.02;69.53
7888;BME280;3989;48.810;9.208;2023-02-11T13:02:59;100628.97;;;9.13;72.42
7888;BME280;3989;48.810;9.208;2023-02-11T13:05:33;100618.22;;;9.03;74.94
7888;BME280;3989;48.810;9.208;2023-02-11T13:08:04;100574.59;;;8.72;78.32
7888;BME280;3989;48.810;9.208;2023-02-11T13:10:36;100577.97;;;8.63;81.40
7888;BME280;3989;48.810;9.208;2023-02-11T13:13:13;100581.03;;;8.59;84.58
7888;BME280;3989;48.810;9.208;2023-02-11T13:15:45;100469.78;;;7.75;88.70
7888;BME280;3989;48.810;9.208;2023-02-11T13:18:21;100617.09;;;8.52;91.58
7888;BME280;3989;48.810;9.208;2023-02-11T13:20:57;100536.75;;;8.02;93.20
7888;BME280;3989;48.810;9.208;2023-02-11T13:23:30;100606.28;;;8.31;94.97
7888;BME280;3989;48.810;9.208;2023-02-11T13:26:09;100501.78;;;7.62;97.19
7888;BME280;3989;48.810;9.208;2023-02-11T13:28:45;100593.19;;;8.06;99.53
7888;BME280;3989;48.810;9.208;2023-02-11T13:31:14;100604.19;;;8.12;100.00
7888;BME280;3989;48.810;9.208;2023-02-11T13:33:44;100576.63;;;7.91;100.00
7888;BME280;3989;48.810;9.208;2023-02-11T13:36:30;100481.78;;;7.34;100.00
7888;BME280;3989;48.810;9.208;2023-02-11T13:39:01;100393.94;;;6.92;100.00
7888;BME280;3989;48.810;9.208;2023-02-11T13:41:38;100527.19;;;7.77;100.00
7888;BME280;3989;48.810;9.208;2023-02-11T13:44:19;100399.56;;;7.11;100.00
7888;BME280;3989;48.810;9.208;2023-02-11T13:46:51;100490.19;;;7.63;100.00
7888;BME280;3989;48.810;9.208;2023-02-11T13:49:22;100599.53;;;8.38;99.91
7888;BME280;3989;48.810;9.208;2023-02-11T13:51:51;100450.09;;;7.55;98.06
7888;BME280;3989;48.810;9.208;2023-02-11T13:54:25;100478.69;;;7.63;98.15
7888;BME280;3989;48.810;9.208;2023-02-11T13:57:24;100596.16;;;8.47;96.84
7888;BME280;3989;48.810;9.208;2023-02-11T13:59:56;100587.44;;;8.45;97.51
7888;BME280;3989;48.810;9.208;2023-02-11T14:02:28;100479.81;;;7.82;97.48
7888;BME280;3989;48.810;9.208;2023-02-11T14:05:23;100547.91;;;8.29;96.18
7888;BME280;3989;48.810;9.208;2023-02-11T14:08:22;100553.00;;;8.32;95.75
7888;BME280;3989;48.810;9.208;2023-02-11T14:11:49;100589.03;;;8.59;95.68
7888;BME280;3989;48.810;9.208;2023-02-11T14:14:23;100475.00;;;7.87;94.47
7888;BME280;3989;48.810;9.208;2023-02-11T14:17:32;100440.69;;;7.62;95.85
7888;BME280;3989;48.810;9.208;2023-02-11T14:20:01;100485.50;;;7.89;95.51
7888;BME280;3989;48.810;9.208;2023-02-11T14:22:30;100465.94;;;7.90;95.06
7888;BME280;3989;48.810;9.208;2023-02-11T14:25:16;100406.34;;;7.48;94.61
7888;BME280;3989;48.810;9.208;2023-02-11T14:27:47;100585.38;;;8.49;95.06
7888;BME280;3989;48.810;9.208;2023-02-11T14:30:47;100536.63;;;8.15;94.77
7888;BME280;3989;48.810;9.208;2023-02-11T14:33:38;100393.19;;;7.35;93.83
7888;BME280;3989;48.810;9.208;2023-02-11T14:36:19;100536.28;;;8.30;92.01
7888;BME280;3989;48.810;9.208;2023-02-11T14:38:59;100372.19;;;7.32;87.52
7888;BME280;3989;48.810;9.208;2023-02-11T14:41:30;100295.72;;;6.92;86.02
7888;BME280;3989;48.810;9.208;2023-02-11T14:43:59;100533.28;;;8.35;85.41
7888;BME280;3989;48.810;9.208;2023-02-11T14:46:28;100512.47;;;8.29;83.60
7888;BME280;3989;48.810;9.208;2023-02-11T14:49:00;100544.38;;;8.51;83.02
7888;BME280;3989;48.810;9.208;2023-02-11T14:51:30;100584.03;;;8.76;83.07
7888;BME280;3989;48.810;9.208;2023-02-11T14:54:08;100430.03;;;7.96;85.39
7888;BME280;3989;48.810;9.208;2023-02-11T14:56:37;100492.25;;;8.26;83.34
7888;BME280;3989;48.810;9.208;2023-02-11T14:59:17;100558.28;;;8.55;83.48
7888;BME280;3989;48.810;9.208;2023-02-11T15:01:48;100622.00;;;9.01;81.81
7888;BME280;3989;48.810;9.208;2023-02-11T15:04:25;100537.00;;;8.55;79.03
7888;BME280;3989;48.810;9.208;2023-02-11T15:06:52;100482.97;;;8.10;78.74
7888;BME280;3989;48.810;9.208;2023-02-11T15:09:22;100417.34;;;7.77;79.84
7888;BME280;3989;48.810;9.208;2023-02-11T15:11:55;100616.91;;;8.98;78.85
7888;BME280;3989;48.810;9.208;2023-02-11T15:14:25;100615.09;;;8.98;79.23
7888;BME280;3989;48.810;9.208;2023-02-11T15:16:54;100597.56;;;8.84;78.41
7888;BME280;3989;48.810;9.208;2023-02-11T15:19:25;100572.56;;;8.42;80.63
7888;BME280;3989;48.810;9.208;2023-02-11T15:21:54;100649.25;;;8.71;80.87
7888;BME280;3989;48.810;9.208;2023-02-11T15:24:24;100524.44;;;8.01;82.37
7888;BME280;3989;48.810;9.208;2023-02-11T15:26:55;100479.94;;;7.81;82.96
7888;BME280;3989;48.810;9.208;2023-02-11T15:29:23;100586.00;;;8.41;83.10
7888;BME280;3989;48.810;9.208;2023-02-11T15:32:02;100625.53;;;8.68;83.29
7888;BME280;3989;48.810;9.208;2023-02-11T15:34:31;100479.22;;;7.68;83.76
7888;BME280;3989;48.810;9.208;2023-02-11T15:36:58;100450.44;;;7.51;84.97
7888;BME280;3989;48.810;9.208;2023-02-11T15:39:31;100454.41;;;7.45;86.08
7888;BME280;3989;48.810;9.208;2023-02-11T15:42:15;100622.38;;;8.40;86.64
7888;BME280;3989;48.810;9.208;2023-02-11T15:44:43;100645.25;;;8.32;88.56
7888;BME280;3989;48.810;9.208;2023-02-11T15:47:11;100610.56;;;7.99;89.72
7888;BME280;3989;48.810;9.208;2023-02-11T15:49:43;100606.53;;;7.82;91.37
7888;BME280;3989;48.810;9.208;2023-02-11T15:52:11;100487.38;;;7.08;93.51
7888;BME280;3989;48.810;9.208;2023-02-11T15:54:44;100531.63;;;7.20;95.22
7888;BME280;3989;48.810;9.208;2023-02-11T15:57:13;100598.34;;;7.50;96.96
7888;BME280;3989;48.810;9.208;2023-02-11T15:59:46;100591.69;;;7.45;98.04
7888;BME280;3989;48.810;9.208;2023-02-11T16:08:41;100564.53;;;7.17;100.00
7888;BME280;3989;48.810;9.208;2023-02-11T16:11:22;100663.53;;;7.67;100.00
7888;BME280;3989;48.810;9.208;2023-02-11T16:14:32;100551.50;;;6.91;100.00
7888;BME280;3989;48.810;9.208;2023-02-11T16:17:04;100626.78;;;7.37;100.00
7888;BME280;3989;48.810;9.208;2023-02-11T16:19:40;100485.53;;;6.50;100.00
7888;BME280;3989;48.810;9.208;2023-02-11T16:22:26;100474.56;;;6.30;100.00
7888;BME280;3989;48.810;9.208;2023-02-11T16:33:21;100680.50;;;7.29;100.00
7888;BME280;3989;48.810;9.208;2023-02-11T16:35:48;100624.44;;;6.98;100.00
7888;BME280;3989;48.810;9.208;2023-02-11T16:40:51;100558.78;;;6.27;100.00
7888;BME280;3989;48.810;9.208;2023-02-11T16:46:25;100520.09;;;6.12;100.00
7888;BME280;3989;48.810;9.208;2023-02-11T17:00:27;100497.75;;;5.78;100.00
7888;BME280;3989;48.810;9.208;2023-02-11T17:03:04;100601.94;;;6.42;100.00
7888;BME280;3989;48.810;9.208;2023-02-11T17:05:33;100596.53;;;6.30;100.00
7888;BME280;3989;48.810;9.208;2023-02-11T17:11:06;100543.56;;;5.93;100.00
7888;BME280;3989;48.810;9.208;2023-02-11T17:13:47;100597.41;;;6.18;100.00
7888;BME280;3989;48.810;9.208;2023-02-11T17:27:40;100512.91;;;5.51;100.00
7888;BME280;3989;48.810;9.208;2023-02-11T17:30:08;100587.47;;;5.97;100.00
7888;BME280;3989;48.810;9.208;2023-02-11T17:32:35;100623.91;;;6.06;100.00
7888;BME280;3989;48.810;9.208;2023-02-11T17:52:12;100555.38;;;5.49;100.00
7888;BME280;3989;48.810;9.208;2023-02-11T17:54:43;100701.78;;;6.43;100.00
7888;BME280;3989;48.810;9.208;2023-02-11T17:59:47;100518.00;;;5.14;100.00
7888;BME280;3989;48.810;9.208;2023-02-11T18:02:18;100731.59;;;6.46;100.00
7888;BME280;3989;48.810;9.208;2023-02-11T18:04:45;100557.69;;;5.41;100.00
7888;BME280;3989;48.810;9.208;2023-02-11T18:30:41;100738.69;;;6.33;100.00
7888;BME280;3989;48.810;9.208;2023-02-11T18:33:08;100758.94;;;6.34;100.00
7888;BME280;3989;48.810;9.208;2023-02-11T18:38:13;100655.09;;;5.75;100.00
7888;BME280;3989;48.810;9.208;2023-02-11T18:40:40;100716.94;;;6.15;100.00
7888;BME280;3989;48.810;9.208;2023-02-11T18:43:07;100706.38;;;6.01;100.00
7888;BME280;3989;48.810;9.208;2023-02-11T18:45:35;100542.81;;;5.13;100.00
7888;BME280;3989;48.810;9.208;2023-02-11T18:51:11;100723.19;;;6.27;100.00
7888;BME280;3989;48.810;9.208;2023-02-11T18:53:39;100605.59;;;5.51;100.00
7888;BME280;3989;48.810;9.208;2023-02-11T18:56:20;100680.94;;;5.99;100.00
7888;BME280;3989;48.810;9.208;2023-02-11T18:58:50;100744.09;;;6.31;100.00
7888;BME280;3989;48.810;9.208;2023-02-11T19:01:21;100624.63;;;5.43;100.00
7888;BME280;3989;48.810;9.208;2023-02-11T19:03:50;100600.69;;;5.45;100.00
7888;BME280;3989;48.810;9.208;2023-02-11T19:06:46;100756.28;;;6.34;100.00
7888;BME280;3989;48.810;9.208;2023-02-11T19:09:15;100740.13;;;6.12;100.00
7888;BME280;3989;48.810;9.208;2023-02-11T19:11:46;100758.50;;;6.27;100.00
7888;BME280;3989;48.810;9.208;2023-02-11T19:14:16;100637.47;;;5.49;100.00
7888;BME280;3989;48.810;9.208;2023-02-11T19:16:57;100728.78;;;6.10;100.00
7888;BME280;3989;48.810;9.208;2023-02-11T19:19:29;100686.41;;;5.83;100.00
7888;BME280;3989;48.810;9.208;2023-02-11T19:22:17;100752.97;;;6.18;100.00
7888;BME280;3989;48.810;9.208;2023-02-11T19:24:45;100727.22;;;6.07;100.00
7888;BME280;3989;48.810;9.208;2023-02-11T19:27:27;100722.91;;;5.92;100.00
